createdAt,value
2018-08-30T00:00:34.487Z,97721.53
2018-08-30T00:03:03.897Z,97719.48
2018-08-30T00:05:33.322Z,97719.91
2018-08-30T00:08:03.120Z,97724.31
2018-08-30T00:10:32.529Z,97722.92
2018-08-30T00:13:01.929Z,97723.38
2018-08-30T00:15:31.499Z,97723.53
2018-08-30T00:18:00.906Z,97724.59
2018-08-30T00:20:30.322Z,97719.19
2018-08-30T00:22:59.761Z,97717.80
2018-08-30T00:25:29.139Z,97723.09
2018-08-30T00:27:58.533Z,97724.50
2018-08-30T00:30:27.921Z,97722.45
2018-08-30T00:32:57.293Z,97728.40
2018-08-30T00:35:26.693Z,97726.44
2018-08-30T00:37:56.113Z,97735.51
2018-08-30T00:40:25.562Z,97728.72
2018-08-30T00:42:55.001Z,97736.64
2018-08-30T00:45:24.418Z,97737.58
2018-08-30T00:47:53.802Z,97737.75
2018-08-30T00:50:23.181Z,97743.16
2018-08-30T00:52:52.573Z,97742.58
2018-08-30T00:55:22.016Z,97745.42
2018-08-30T00:57:51.399Z,97749.70
2018-08-30T01:00:20.828Z,97747.31
2018-08-30T01:02:50.318Z,97748.61
2018-08-30T01:05:19.750Z,97758.50
2018-08-30T01:07:49.221Z,97762.35
2018-08-30T01:10:18.628Z,97761.47
2018-08-30T01:12:55.034Z,97763.91
2018-08-30T01:15:27.505Z,97764.16
2018-08-30T01:17:57.125Z,97767.17
2018-08-30T01:20:26.522Z,97775.17
2018-08-30T01:22:55.965Z,97769.89
2018-08-30T01:25:25.394Z,97777.35
2018-08-30T01:27:54.822Z,97772.31
2018-08-30T01:30:24.209Z,97774.16
2018-08-30T01:32:53.657Z,97770.77
2018-08-30T01:35:23.029Z,97770.25
2018-08-30T01:37:52.446Z,97773.06
2018-08-30T01:40:21.842Z,97777.84
2018-08-30T01:42:51.241Z,97781.73
2018-08-30T01:45:20.634Z,97788.42
2018-08-30T01:47:50.108Z,97789.78
2018-08-30T01:50:19.494Z,97783.25
2018-08-30T01:52:48.874Z,97787.89
2018-08-30T01:55:18.312Z,97784.27
2018-08-30T01:57:47.671Z,97786.12
2018-08-30T02:00:17.181Z,97791.31
2018-08-30T02:02:46.582Z,97790.24
2018-08-30T02:05:16.140Z,97785.55
2018-08-30T02:07:45.568Z,97792.67
2018-08-30T02:10:15.030Z,97805.24
2018-08-30T02:12:44.429Z,97802.48
2018-08-30T02:15:13.834Z,97792.56
2018-08-30T02:17:43.256Z,97796.38
2018-08-30T02:20:12.674Z,97796.41
2018-08-30T02:22:42.101Z,97802.02
2018-08-30T02:25:11.534Z,97800.80
2018-08-30T02:27:40.919Z,97801.53
2018-08-30T02:30:10.383Z,97800.72
2018-08-30T02:32:39.822Z,97821.65
2018-08-30T02:35:09.210Z,97820.35
2018-08-30T02:37:38.622Z,97823.96
2018-08-30T02:40:08.062Z,97829.19
2018-08-30T02:42:37.460Z,97834.11
2018-08-30T02:45:07.330Z,97836.71
2018-08-30T02:47:36.714Z,97849.24
2018-08-30T02:50:06.212Z,97842.77
2018-08-30T02:52:35.782Z,97846.41
2018-08-30T02:55:05.182Z,97847.02
2018-08-30T02:57:34.679Z,97852.77
2018-08-30T03:00:04.062Z,97855.36
2018-08-30T03:02:33.462Z,97860.92
2018-08-30T03:05:02.866Z,97853.48
2018-08-30T03:07:32.261Z,97855.36
2018-08-30T03:10:01.758Z,97856.00
2018-08-30T03:12:31.299Z,97856.35
2018-08-30T03:15:11.541Z,97864.05
2018-08-30T03:17:40.946Z,97856.75
2018-08-30T03:20:13.179Z,97862.88
2018-08-30T03:22:43.122Z,97867.56
2018-08-30T03:25:12.609Z,97876.85
2018-08-30T03:27:41.998Z,97874.14
2018-08-30T03:30:11.545Z,97884.60
2018-08-30T03:32:40.878Z,97885.84
2018-08-30T03:35:10.270Z,97885.58
2018-08-30T03:37:39.634Z,97892.15
2018-08-30T03:40:09.141Z,97887.42
2018-08-30T03:42:38.538Z,97887.45
2018-08-30T03:45:07.915Z,97895.90
2018-08-30T03:47:37.286Z,97900.69
2018-08-30T03:50:06.690Z,97905.64
2018-08-30T03:52:36.100Z,97906.52
2018-08-30T03:55:05.549Z,97914.91
2018-08-30T03:57:34.894Z,97917.41
2018-08-30T04:00:04.339Z,97912.42
2018-08-30T04:02:33.718Z,97914.16
2018-08-30T04:05:03.075Z,97922.64
2018-08-30T04:07:32.442Z,97924.66
2018-08-30T04:10:01.848Z,97921.66
2018-08-30T04:12:31.238Z,97929.23
2018-08-30T04:15:00.609Z,97930.14
2018-08-30T04:17:30.018Z,97934.52
2018-08-30T04:19:59.378Z,97931.39
2018-08-30T04:22:28.738Z,97935.36
2018-08-30T04:24:58.982Z,97944.18
2018-08-30T04:27:28.363Z,97944.97
2018-08-30T04:29:57.754Z,97947.70
2018-08-30T04:32:27.122Z,97945.81
2018-08-30T04:34:56.470Z,97952.67
2018-08-30T04:37:25.869Z,97950.29
2018-08-30T04:39:55.226Z,97954.53
2018-08-30T04:42:24.687Z,97958.23
2018-08-30T04:44:53.993Z,97959.20
2018-08-30T04:47:23.399Z,97961.63
2018-08-30T04:49:52.761Z,97960.07
2018-08-30T04:52:22.134Z,97966.27
2018-08-30T04:54:51.522Z,97976.27
2018-08-30T04:57:20.889Z,97980.94
2018-08-30T04:59:50.285Z,97991.03
2018-08-30T05:02:19.703Z,97996.33
2018-08-30T05:04:49.090Z,98008.72
2018-08-30T05:07:18.479Z,98019.00
2018-08-30T05:09:47.838Z,98005.86
2018-08-30T05:12:17.210Z,98013.26
2018-08-30T05:14:46.619Z,98022.48
2018-08-30T05:17:15.978Z,98030.64
2018-08-30T05:19:45.446Z,98038.89
2018-08-30T05:22:14.846Z,98042.31
2018-08-30T05:24:44.242Z,98044.62
2018-08-30T05:27:13.650Z,98048.41
2018-08-30T05:29:43.084Z,98056.11
2018-08-30T05:32:12.463Z,98059.81
2018-08-30T05:34:41.826Z,98056.94
2018-08-30T05:37:11.242Z,98049.02
2018-08-30T05:39:40.654Z,98057.91
2018-08-30T05:42:10.113Z,98057.41
2018-08-30T05:44:39.509Z,98065.63
2018-08-30T05:47:08.898Z,98067.46
2018-08-30T05:49:38.288Z,98074.27
2018-08-30T05:52:07.698Z,98067.75
2018-08-30T05:54:37.103Z,98073.37
2018-08-30T05:57:06.530Z,98078.88
2018-08-30T05:59:35.938Z,98084.08
2018-08-30T06:02:05.454Z,98075.26
2018-08-30T06:04:34.806Z,98077.62
2018-08-30T06:07:04.193Z,98079.75
2018-08-30T06:09:33.585Z,98079.44
2018-08-30T06:12:03.077Z,98089.48
2018-08-30T06:14:32.437Z,98084.91
2018-08-30T06:17:01.846Z,98089.18
2018-08-30T06:19:31.243Z,98096.19
2018-08-30T06:22:00.618Z,98105.33
2018-08-30T06:24:30.046Z,98105.05
2018-08-30T06:26:59.782Z,98108.64
2018-08-30T06:29:29.146Z,98112.13
2018-08-30T06:31:58.857Z,98111.15
2018-08-30T06:34:28.270Z,98111.00
2018-08-30T06:36:57.651Z,98117.48
2018-08-30T06:39:27.214Z,98119.23
2018-08-30T06:41:56.578Z,98124.11
2018-08-30T06:44:25.981Z,98125.37
2018-08-30T06:46:55.357Z,98137.36
2018-08-30T06:49:24.730Z,98135.95
2018-08-30T06:51:54.149Z,98138.63
2018-08-30T06:54:23.563Z,98136.30
2018-08-30T06:56:52.941Z,98140.73
2018-08-30T06:59:22.374Z,98141.34
2018-08-30T07:01:51.793Z,98146.55
2018-08-30T07:04:21.352Z,98145.51
2018-08-30T07:06:50.823Z,98152.20
2018-08-30T07:09:20.202Z,98154.38
2018-08-30T07:11:49.610Z,98153.02
2018-08-30T07:14:19.037Z,98161.92
2018-08-30T07:16:48.402Z,98160.62
2018-08-30T07:19:17.797Z,98164.66
2018-08-30T07:21:47.184Z,98172.34
2018-08-30T07:24:16.607Z,98174.30
2018-08-30T07:26:45.955Z,98173.83
2018-08-30T07:29:15.345Z,98172.02
2018-08-30T07:31:44.730Z,98173.25
2018-08-30T07:34:14.174Z,98177.19
2018-08-30T07:36:43.506Z,98174.25
2018-08-30T07:39:13.422Z,98175.49
2018-08-30T07:41:42.837Z,98177.13
2018-08-30T07:44:12.777Z,98185.50
2018-08-30T07:46:42.062Z,98186.98
2018-08-30T07:49:11.437Z,98188.91
2018-08-30T07:51:40.834Z,98195.77
2018-08-30T07:54:10.194Z,98210.92
2018-08-30T07:56:39.578Z,98205.77
2018-08-30T07:59:08.944Z,98215.27
2018-08-30T08:01:38.319Z,98214.84
2018-08-30T08:04:07.766Z,98216.80
2018-08-30T08:06:37.282Z,98218.64
2018-08-30T08:09:09.721Z,98214.00
2018-08-30T08:11:39.170Z,98219.91
2018-08-30T08:14:08.679Z,98225.81
2018-08-30T08:16:38.058Z,98233.53
2018-08-30T08:19:07.605Z,98232.80
2018-08-30T08:21:36.910Z,98241.56
2018-08-30T08:24:06.362Z,98235.77
2018-08-30T08:26:35.807Z,98243.77
2018-08-30T08:29:05.193Z,98240.28
2018-08-30T08:31:34.584Z,98241.48
2018-08-30T08:34:03.969Z,98242.27
2018-08-30T08:36:33.385Z,98242.36
2018-08-30T08:39:02.875Z,98243.51
2018-08-30T08:41:32.272Z,98249.84
2018-08-30T08:44:01.666Z,98247.14
2018-08-30T08:46:31.045Z,98246.78
2018-08-30T08:49:00.444Z,98250.15
2018-08-30T08:51:29.826Z,98246.05
2018-08-30T08:53:59.220Z,98259.41
2018-08-30T08:56:28.642Z,98251.66
2018-08-30T08:58:58.304Z,98258.23
2018-08-30T09:01:27.613Z,98259.24
2018-08-30T09:03:56.972Z,98259.42
2018-08-30T09:06:26.364Z,98267.80
2018-08-30T09:08:55.909Z,98268.06
2018-08-30T09:11:25.318Z,98272.36
2018-08-30T09:13:54.733Z,98278.42
2018-08-30T09:16:24.129Z,98270.37
2018-08-30T09:18:53.598Z,98274.83
2018-08-30T09:21:23.032Z,98278.31
2018-08-30T09:23:52.446Z,98276.75
2018-08-30T09:26:21.902Z,98221.62
2018-08-30T09:31:27.598Z,98287.52
2018-08-30T09:33:57.087Z,98280.81
2018-08-30T09:36:26.466Z,98288.02
2018-08-30T09:38:55.907Z,98278.09
2018-08-30T09:41:25.433Z,98280.27
2018-08-30T09:43:54.882Z,98278.57
2018-08-30T09:46:24.246Z,98280.28
2018-08-30T09:48:53.642Z,98294.70
2018-08-30T09:51:23.030Z,98285.38
2018-08-30T09:53:52.444Z,98287.00
2018-08-30T09:56:21.842Z,98294.03
2018-08-30T09:58:51.270Z,98293.13
2018-08-30T10:01:25.882Z,98292.34
2018-08-30T10:03:55.358Z,98298.17
2018-08-30T10:06:24.693Z,98289.59
2018-08-30T10:08:54.094Z,98300.90
2018-08-30T10:11:23.531Z,98306.56
2018-08-30T10:13:52.951Z,98310.05
2018-08-30T10:16:22.358Z,98314.61
2018-08-30T10:18:51.738Z,98317.30
2018-08-30T10:21:21.197Z,98317.16
2018-08-30T10:23:50.544Z,98313.03
2018-08-30T10:26:19.971Z,98314.50
2018-08-30T10:28:49.362Z,98318.55
2018-08-30T10:31:18.858Z,98321.31
2018-08-30T10:33:48.257Z,98316.05
2018-08-30T10:36:17.815Z,98323.80
2018-08-30T10:38:47.206Z,98324.06
2018-08-30T10:41:16.598Z,98319.22
2018-08-30T10:43:46.030Z,98325.09
2018-08-30T10:46:15.399Z,98310.06
2018-08-30T10:48:44.854Z,98313.31
2018-08-30T10:51:14.266Z,98314.70
2018-08-30T10:53:43.770Z,98315.34
2018-08-30T10:56:13.266Z,98309.45
2018-08-30T10:58:42.650Z,98313.38
2018-08-30T11:01:12.075Z,98313.12
2018-08-30T11:03:41.518Z,98312.59
2018-08-30T11:06:10.923Z,98311.29
2018-08-30T11:08:40.327Z,98336.52
2018-08-30T11:11:09.749Z,98325.02
2018-08-30T11:13:39.152Z,98316.38
2018-08-30T11:16:08.557Z,98309.84
2018-08-30T11:18:37.970Z,98325.80
2018-08-30T11:21:07.427Z,98311.68
2018-08-30T11:23:36.825Z,98319.35
2018-08-30T11:26:06.214Z,98315.64
2018-08-30T11:28:35.599Z,98317.98
2018-08-30T11:31:05.054Z,98326.61
2018-08-30T11:33:34.546Z,98328.90
2018-08-30T11:36:04.149Z,98336.70
2018-08-30T11:38:33.563Z,98331.88
2018-08-30T11:41:03.038Z,98337.58
2018-08-30T11:43:32.450Z,98324.86
2018-08-30T11:46:01.923Z,98335.06
2018-08-30T11:48:31.359Z,98328.30
2018-08-30T11:51:00.763Z,98334.72
2018-08-30T11:53:30.231Z,98335.84
2018-08-30T11:55:59.695Z,98334.88
2018-08-30T11:58:29.101Z,98336.68
2018-08-30T12:00:58.650Z,98340.93
2018-08-30T12:03:27.980Z,98340.58
2018-08-30T12:05:57.441Z,98339.86
2018-08-30T12:08:26.833Z,98346.20
2018-08-30T12:10:56.349Z,98351.41
2018-08-30T12:13:25.666Z,98363.10
2018-08-30T12:15:55.083Z,98365.90
2018-08-30T12:18:24.561Z,98379.95
2018-08-30T12:20:53.984Z,98369.44
2018-08-30T12:23:23.469Z,98370.16
2018-08-30T12:25:53.362Z,98368.98
2018-08-30T12:28:23.063Z,98367.18
2018-08-30T12:30:52.446Z,98364.93
2018-08-30T12:33:21.850Z,98356.53
2018-08-30T12:35:51.352Z,98366.96
2018-08-30T12:38:20.660Z,98361.06
2018-08-30T12:40:50.133Z,98373.70
2018-08-30T12:43:19.548Z,98372.23
2018-08-30T12:45:48.848Z,98357.55
2018-08-30T12:48:18.237Z,98360.06
2018-08-30T12:50:47.716Z,98356.75
2018-08-30T12:53:17.040Z,98353.86
2018-08-30T12:55:46.513Z,98347.02
2018-08-30T12:58:15.937Z,98357.64
2018-08-30T13:00:45.269Z,98366.27
2018-08-30T13:03:14.729Z,98354.13
2018-08-30T13:05:44.449Z,98355.95
2018-08-30T13:08:13.717Z,98367.34
2018-08-30T13:10:43.487Z,98369.16
2018-08-30T13:13:13.060Z,98380.39
2018-08-30T13:15:42.301Z,98386.27
2018-08-30T13:18:11.729Z,98383.36
2018-08-30T13:20:41.176Z,98389.38
2018-08-30T13:23:10.539Z,98392.84
2018-08-30T13:25:40.055Z,98394.97
2018-08-30T13:28:09.449Z,98391.87
2018-08-30T13:30:38.756Z,98404.70
2018-08-30T13:33:08.455Z,98404.55
2018-08-30T13:35:37.685Z,98403.30
2018-08-30T13:38:07.318Z,98397.80
2018-08-30T13:40:36.755Z,98403.49
2018-08-30T13:43:06.310Z,98393.84
2018-08-30T13:45:35.750Z,98396.90
2018-08-30T13:48:05.096Z,98391.48
2018-08-30T13:50:34.442Z,98391.72
2018-08-30T13:53:03.935Z,98385.25
2018-08-30T13:55:33.632Z,98384.14
2018-08-30T13:58:02.877Z,98392.06
2018-08-30T14:00:32.451Z,98378.58
2018-08-30T14:03:01.444Z,98381.38
2018-08-30T14:05:30.793Z,98378.34
2018-08-30T14:08:00.196Z,98374.70
2018-08-30T14:10:29.630Z,98376.44
2018-08-30T14:12:59.000Z,98380.53
2018-08-30T14:15:28.468Z,98379.64
2018-08-30T14:17:57.507Z,98384.05
2018-08-30T14:20:26.894Z,98382.00
2018-08-30T14:22:56.684Z,98375.30
2018-08-30T14:25:26.156Z,98379.28
2018-08-30T14:27:55.398Z,98375.13
2018-08-30T14:30:24.807Z,98376.83
2018-08-30T14:32:54.308Z,98381.89
2018-08-30T14:35:23.581Z,98375.19
2018-08-30T14:37:53.054Z,98366.42
2018-08-30T14:40:22.426Z,98372.41
2018-08-30T14:42:51.836Z,98373.31
2018-08-30T14:45:21.275Z,98369.44
2018-08-30T14:47:50.900Z,98375.13
2018-08-30T14:50:20.074Z,98383.09
2018-08-30T14:52:49.481Z,98380.95
2018-08-30T14:55:18.884Z,98379.93
2018-08-30T14:57:48.295Z,98388.30
2018-08-30T15:00:17.771Z,98377.41
2018-08-30T15:02:47.118Z,98382.68
2018-08-30T15:05:16.527Z,98382.24
2018-08-30T15:07:45.870Z,98384.13
2018-08-30T15:10:15.480Z,98391.00
2018-08-30T15:12:45.095Z,98383.14
2018-08-30T15:15:14.353Z,98381.84
2018-08-30T15:17:43.781Z,98388.49
2018-08-30T15:20:13.240Z,98386.64
2018-08-30T15:22:42.530Z,98393.30
2018-08-30T15:25:11.916Z,98394.12
2018-08-30T15:27:41.344Z,98397.14
2018-08-30T15:30:10.716Z,98390.42
2018-08-30T15:32:40.090Z,98388.80
2018-08-30T15:35:09.518Z,98389.80
2018-08-30T15:37:38.909Z,98396.50
2018-08-30T15:40:08.320Z,98391.56
2018-08-30T15:42:37.730Z,98402.54
2018-08-30T15:45:07.182Z,98409.09
2018-08-30T15:47:36.642Z,98415.87
2018-08-30T15:50:06.531Z,98422.30
2018-08-30T15:52:35.858Z,98418.97
2018-08-30T15:55:05.460Z,98423.72
2018-08-30T15:57:34.772Z,98424.57
2018-08-30T16:00:04.245Z,98429.45
2018-08-30T16:02:33.638Z,98426.91
2018-08-30T16:05:03.042Z,98426.73
2018-08-30T16:07:32.438Z,98427.86
2018-08-30T16:10:01.822Z,98429.84
2018-08-30T16:12:31.223Z,98419.11
2018-08-30T16:15:00.618Z,98417.39
2018-08-30T16:17:30.118Z,98423.31
2018-08-30T16:19:59.653Z,98414.02
2018-08-30T16:22:47.509Z,98431.37
2018-08-30T16:25:17.522Z,98421.23
2018-08-30T16:27:46.990Z,98427.17
2018-08-30T16:30:16.397Z,98434.73
2018-08-30T16:32:45.804Z,98431.13
2018-08-30T16:35:15.225Z,98428.80
2018-08-30T16:37:44.598Z,98423.37
2018-08-30T16:40:14.018Z,98422.47
2018-08-30T16:42:43.402Z,98423.52
2018-08-30T16:45:12.806Z,98414.25
2018-08-30T16:47:42.186Z,98428.33
2018-08-30T16:50:11.558Z,98430.27
2018-08-30T16:52:40.958Z,98428.72
2018-08-30T16:55:10.330Z,98434.34
2018-08-30T16:57:39.746Z,98424.98
2018-08-30T17:00:09.174Z,98424.59
2018-08-30T17:02:38.570Z,98427.70
2018-08-30T17:05:08.035Z,98430.22
2018-08-30T17:07:37.478Z,98429.34
2018-08-30T17:10:07.228Z,98430.81
2018-08-30T17:12:36.724Z,98430.51
2018-08-30T17:15:06.152Z,98428.73
2018-08-30T17:17:35.730Z,98431.22
2018-08-30T17:20:08.313Z,98424.42
2018-08-30T17:22:37.774Z,98429.38
2018-08-30T17:25:07.508Z,98424.50
2018-08-30T17:27:36.994Z,98426.34
2018-08-30T17:30:07.359Z,98422.85
2018-08-30T17:32:37.122Z,98422.50
2018-08-30T17:35:07.324Z,98422.06
2018-08-30T17:37:36.842Z,98426.44
2018-08-30T17:40:06.589Z,98426.55
2018-08-30T17:42:36.034Z,98430.74
2018-08-30T17:45:05.717Z,98429.19
2018-08-30T17:47:35.260Z,98427.84
2018-08-30T17:50:04.752Z,98428.20
2018-08-30T17:52:34.267Z,98434.63
2018-08-30T17:55:03.713Z,98431.00
2018-08-30T17:57:33.376Z,98429.95
2018-08-30T18:00:02.831Z,98437.64
2018-08-30T18:02:32.226Z,98441.08
2018-08-30T18:05:01.638Z,98441.78
2018-08-30T18:07:31.090Z,98443.89
2018-08-30T18:10:00.694Z,98449.23
2018-08-30T18:12:30.402Z,98455.11
2018-08-30T18:15:00.701Z,98456.41
2018-08-30T18:17:31.042Z,98459.91
2018-08-30T18:20:02.717Z,98461.23
2018-08-30T18:22:35.311Z,98467.05
2018-08-30T18:25:08.946Z,98467.23
2018-08-30T18:27:41.767Z,98474.06
2018-08-30T18:30:14.246Z,98475.84
2018-08-30T18:32:47.105Z,98476.10
2018-08-30T18:35:20.303Z,98478.83
2018-08-30T18:37:53.392Z,98479.76
2018-08-30T18:40:27.568Z,98485.65
2018-08-30T18:42:59.762Z,98488.03
2018-08-30T18:45:32.541Z,98488.66
2018-08-30T18:48:04.697Z,98489.95
2018-08-30T18:50:36.957Z,98492.09
2018-08-30T18:53:09.436Z,98499.07
2018-08-30T18:55:41.700Z,98501.41
2018-08-30T18:58:14.480Z,98505.88
2018-08-30T19:00:46.722Z,98508.48
2018-08-30T19:03:19.049Z,98511.98
2018-08-30T19:05:51.322Z,98518.47
2018-08-30T19:08:23.628Z,98523.66
2018-08-30T19:10:56.070Z,98516.31
2018-08-30T19:13:29.104Z,98514.69
2018-08-30T19:16:06.189Z,98521.43
2018-08-30T19:18:42.963Z,98522.41
2018-08-30T19:21:15.111Z,98522.20
2018-08-30T19:23:47.608Z,98527.31
2018-08-30T19:26:20.269Z,98523.19
2018-08-30T19:28:52.501Z,98528.81
2018-08-30T19:31:24.838Z,98529.72
2018-08-30T19:33:58.003Z,98530.67
2018-08-30T19:36:31.822Z,98531.63
2018-08-30T19:39:04.708Z,98526.41
2018-08-30T19:41:37.283Z,98529.55
2018-08-30T19:44:10.242Z,98534.06
2018-08-30T19:46:43.291Z,98536.47
2018-08-30T19:49:15.585Z,98540.08
2018-08-30T19:51:48.894Z,98545.08
2018-08-30T19:54:21.168Z,98552.78
2018-08-30T19:56:53.488Z,98550.12
2018-08-30T19:59:25.749Z,98549.22
2018-08-30T20:01:58.313Z,98554.46
2018-08-30T20:09:34.824Z,98551.22
2018-08-30T20:12:06.969Z,98550.97
2018-08-30T20:14:39.280Z,98551.31
2018-08-30T20:17:11.639Z,98547.98
2018-08-30T20:19:45.998Z,98548.20
2018-08-30T20:22:18.347Z,98546.13
2018-08-30T20:24:50.165Z,98550.80
2018-08-30T20:27:22.232Z,98547.91
2018-08-30T20:29:53.290Z,98550.34
2018-08-30T20:32:24.881Z,98548.47
2018-08-30T20:34:55.435Z,98552.98
2018-08-30T20:37:25.706Z,98542.54
2018-08-30T20:39:55.615Z,98550.14
2018-08-30T20:42:25.412Z,98547.56
2018-08-30T20:44:54.936Z,98542.59
2018-08-30T20:47:24.662Z,98544.38
2018-08-30T20:49:54.189Z,98550.95
2018-08-30T20:52:23.739Z,98548.56
2018-08-30T20:54:53.214Z,98547.81
2018-08-30T20:57:22.649Z,98557.81
2018-08-30T20:59:52.078Z,98560.58
2018-08-30T21:02:21.535Z,98563.29
2018-08-30T21:04:52.058Z,98564.22
2018-08-30T21:07:21.532Z,98572.38
2018-08-30T21:09:50.967Z,98571.44
2018-08-30T21:12:20.385Z,98577.70
2018-08-30T21:14:49.880Z,98573.91
2018-08-30T21:17:19.345Z,98579.63
2018-08-30T21:19:48.841Z,98580.22
2018-08-30T21:22:18.249Z,98577.86
2018-08-30T21:24:47.707Z,98581.33
2018-08-30T21:27:17.106Z,98582.55
2018-08-30T21:29:46.513Z,98581.66
2018-08-30T21:32:15.944Z,98581.66
2018-08-30T21:34:45.370Z,98580.52
2018-08-30T21:37:14.781Z,98578.70
2018-08-30T21:39:44.173Z,98587.38
2018-08-30T21:42:13.578Z,98587.70
2018-08-30T21:44:42.954Z,98586.00
2018-08-30T21:47:12.410Z,98584.31
2018-08-30T21:49:41.823Z,98583.47
2018-08-30T21:52:11.197Z,98585.64
2018-08-30T21:54:40.593Z,98584.87
2018-08-30T21:57:09.970Z,98580.95
2018-08-30T21:59:39.374Z,98586.13
2018-08-30T22:02:08.860Z,98584.42
2018-08-30T22:04:38.238Z,98585.72
2018-08-30T22:07:07.633Z,98582.32
2018-08-30T22:09:36.995Z,98581.07
2018-08-30T22:12:06.402Z,98586.70
2018-08-30T22:14:35.822Z,98578.77
2018-08-30T22:17:05.386Z,98577.98
2018-08-30T22:19:34.787Z,98579.84
2018-08-30T22:22:04.165Z,98576.55
2018-08-30T22:24:33.602Z,98582.17
2018-08-30T22:27:02.974Z,98583.44
2018-08-30T22:29:32.357Z,98587.30
2018-08-30T22:32:01.745Z,98585.31
2018-08-30T22:34:31.134Z,98586.58
2018-08-30T22:37:00.549Z,98595.48
2018-08-30T22:39:29.958Z,98591.92
2018-08-30T22:41:59.402Z,98592.69
2018-08-30T22:44:28.774Z,98597.34
2018-08-30T22:46:58.154Z,98596.38
2018-08-30T22:49:27.526Z,98601.13
2018-08-30T22:52:00.993Z,98601.57
2018-08-30T22:54:30.346Z,98592.45
2018-08-30T22:56:59.746Z,98597.49
2018-08-30T22:59:29.122Z,98594.81
2018-08-30T23:01:58.618Z,98592.72
2018-08-30T23:04:27.990Z,98593.09
2018-08-30T23:06:57.371Z,98591.70
2018-08-30T23:09:26.777Z,98593.88
2018-08-30T23:11:56.165Z,98592.95
2018-08-30T23:14:25.618Z,98593.36
2018-08-30T23:16:54.989Z,98593.43
2018-08-30T23:19:24.369Z,98593.43
2018-08-30T23:21:53.734Z,98591.26
2018-08-30T23:24:23.143Z,98597.20
2018-08-30T23:26:52.562Z,98589.50
2018-08-30T23:29:21.913Z,98588.64
2018-08-30T23:31:51.362Z,98586.20
2018-08-30T23:34:20.751Z,98580.20
2018-08-30T23:36:50.150Z,98579.82
2018-08-30T23:39:19.554Z,98573.84
2018-08-30T23:41:48.918Z,98573.41
2018-08-30T23:44:18.358Z,98567.77
2018-08-30T23:46:47.734Z,98574.16
2018-08-30T23:49:17.102Z,98566.79
2018-08-30T23:51:46.497Z,98570.16
2018-08-30T23:54:15.890Z,98571.13
2018-08-30T23:56:45.279Z,98566.89
2018-08-30T23:59:31.515Z,98560.83
